Airfield :
LOGIN :

Register | Disclaimer

   EN    FR    IT 

 










Legend :    VFR   Marginal VFR   IFR   Intensive IFR   Very Intensive IFR
Visi :
Ceiling :
>= 8 km
>= 3000ft
5 to 8 km
1000 to 3000 ft
1500m to 5 km
500 to 1000 ft
800 to 1500m
200 to 500 ft
< 800m
< 200 ft
Symbols :   Thunderstorms  Fog  Heavy snow  Heavy precipitations  Wind > 20 kt
SIGMETs :     Misc.  Thunderstorms  Icing  Turbulence  Mountain Waves  Volcanic Ashes






- Airport Elevation : 1306 ft
- IATA code : ACH


LSZR - Alten Rhein

CURRENT METAR :
  • 100320Z AUTO 18022G42KT 140V240 9999 NSC 22/05 Q1006

EXPIRED METARs :
  • 100250Z AUTO 18023G47KT 120V230 9999 NSC 22/05 Q1006
  • 100220Z AUTO 18023G47KT 130V240 9999 NCD 23/05 Q1006
  • 100150Z AUTO 18026G49KT 130V230 CAVOK 23/05 Q1006
  • 100120Z AUTO 18023G50KT 140V230 CAVOK 23/05 Q1006
  • 100050Z AUTO 17020G40KT 130V240 CAVOK 22/05 Q1007

TAF TAF LSZR
Valid from the 10 at 03:00 until the 10 at 12:00 UTC


100225Z 1003/1012 17020G40KT CAVOK
PROB40
TEMPO 1003/1008 18026G50KT
BECMG 1009/1012 17018G30KT
ATIS : +41 71 858 51 66



MET'MAP, your aeronautical weather chart ! - Copyright ORBIFLY December 2007 - Disclaimer

ORBIFLY MET'MAP TEAM :

Programming & Development : Alexandra Zaïnal
Concept & original design : Baudouin d'Aumeries
Assistance for programming : Marc-Olivier Méhu
Technical & hardware support : Manuel Goepfert

Contact : metmap@orbifly.com




SOURCES & CREDITS :

   NOAA